createdAt,value
2017-07-27T00:00:28.180Z,29.48
2017-07-27T00:02:55.858Z,26.92
2017-07-27T00:05:23.505Z,30.37
2017-07-27T00:07:51.141Z,30.23
2017-07-27T00:10:18.816Z,28.15
2017-07-27T00:12:47.221Z,29.25
2017-07-27T00:15:14.856Z,27.65
2017-07-27T00:17:42.519Z,29.45
2017-07-27T00:20:10.151Z,28.42
2017-07-27T00:22:37.796Z,35.10
2017-07-27T00:25:05.480Z,28.83
2017-07-27T00:27:33.117Z,24.05
2017-07-27T00:30:00.757Z,31.95
2017-07-27T00:32:28.441Z,31.00
2017-07-27T00:34:56.080Z,28.10
2017-07-27T00:37:23.721Z,28.42
2017-07-27T00:39:51.392Z,35.88
2017-07-27T00:42:19.796Z,23.10
2017-07-27T00:44:47.431Z,30.90
2017-07-27T00:47:15.112Z,32.10
2017-07-27T00:49:42.755Z,31.40
2017-07-27T00:52:10.388Z,32.53
2017-07-27T00:54:38.049Z,35.42
2017-07-27T00:57:05.687Z,32.00
2017-07-27T00:59:33.333Z,28.77
2017-07-27T01:02:01.006Z,32.42
2017-07-27T01:04:28.653Z,40.38
2017-07-27T01:06:56.283Z,30.37
2017-07-27T01:09:23.956Z,37.60
2017-07-27T01:11:51.603Z,36.35
2017-07-27T01:14:19.237Z,32.15
2017-07-27T01:16:46.909Z,27.33
2017-07-27T01:19:15.321Z,34.80
2017-07-27T01:21:42.968Z,35.17
2017-07-27T01:24:10.639Z,31.08
2017-07-27T01:26:38.284Z,29.50
2017-07-27T01:29:05.926Z,30.58
2017-07-27T01:31:33.601Z,37.05
2017-07-27T01:34:02.008Z,30.88
2017-07-27T01:36:29.656Z,26.08
2017-07-27T01:38:57.328Z,22.90
2017-07-27T01:41:24.972Z,25.20
2017-07-27T01:43:52.606Z,29.27
2017-07-27T01:46:20.285Z,28.35
2017-07-27T01:48:47.937Z,32.58
2017-07-27T01:51:15.570Z,25.75
2017-07-27T01:53:43.257Z,20.65
2017-07-27T01:56:11.669Z,30.62
2017-07-27T01:58:39.305Z,22.33
2017-07-27T02:01:06.984Z,28.23
2017-07-27T02:03:34.620Z,26.65
2017-07-27T02:06:02.261Z,24.92
2017-07-27T02:08:29.924Z,27.13
2017-07-27T02:10:57.583Z,26.37
2017-07-27T02:13:25.225Z,20.77
2017-07-27T02:15:52.908Z,26.52
2017-07-27T02:18:20.549Z,26.92
2017-07-27T02:20:48.191Z,25.02
2017-07-27T02:23:15.867Z,31.90
2017-07-27T02:25:43.507Z,24.65
2017-07-27T02:28:11.140Z,22.83
2017-07-27T02:30:38.818Z,27.70
2017-07-27T02:33:06.453Z,24.50
2017-07-27T02:35:34.102Z,20.98
2017-07-27T02:38:01.799Z,24.02
2017-07-27T02:40:29.436Z,28.27
2017-07-27T02:42:57.072Z,26.95
2017-07-27T02:45:24.757Z,26.20
2017-07-27T02:47:53.157Z,24.00
2017-07-27T02:50:20.788Z,27.23
2017-07-27T02:52:48.465Z,25.05
2017-07-27T02:55:16.105Z,26.85
2017-07-27T02:57:43.740Z,27.58
2017-07-27T03:00:11.407Z,21.87
2017-07-27T03:02:39.043Z,19.50
2017-07-27T03:05:06.679Z,21.02
2017-07-27T03:07:34.352Z,22.50
2017-07-27T03:10:01.986Z,18.80
2017-07-27T03:12:29.620Z,21.75
2017-07-27T03:14:57.297Z,21.27
2017-07-27T03:17:24.927Z,21.15
2017-07-27T03:19:52.568Z,19.70
2017-07-27T03:22:20.237Z,23.60
2017-07-27T03:24:47.873Z,22.95
2017-07-27T03:27:15.521Z,18.92
2017-07-27T03:29:43.197Z,24.98
2017-07-27T03:32:11.610Z,21.17
2017-07-27T03:34:39.257Z,16.90
2017-07-27T03:37:06.926Z,22.90
2017-07-27T03:39:34.570Z,18.75
2017-07-27T03:42:02.210Z,24.63
2017-07-27T03:44:29.888Z,21.08
2017-07-27T03:46:57.539Z,22.10
2017-07-27T03:49:25.174Z,22.10
2017-07-27T03:51:52.857Z,23.23
2017-07-27T03:54:20.487Z,20.90
2017-07-27T03:56:48.897Z,24.15
2017-07-27T03:59:16.576Z,21.23
2017-07-27T04:01:44.222Z,22.98
2017-07-27T04:04:11.855Z,19.87
2017-07-27T04:06:39.515Z,21.20
2017-07-27T04:09:07.139Z,25.70
2017-07-27T04:11:34.783Z,24.60
2017-07-27T04:14:02.457Z,19.33
2017-07-27T04:16:30.091Z,23.10
2017-07-27T04:18:57.763Z,20.70
2017-07-27T04:21:25.436Z,20.20
2017-07-27T04:23:53.088Z,18.65
2017-07-27T04:26:20.724Z,22.00
2017-07-27T04:28:48.387Z,24.75
2017-07-27T04:31:16.032Z,25.67
2017-07-27T04:33:43.673Z,21.35
2017-07-27T04:36:11.339Z,23.45
2017-07-27T04:38:38.992Z,19.40
2017-07-27T04:41:06.641Z,18.40
2017-07-27T04:43:34.317Z,17.60
2017-07-27T04:46:01.970Z,19.17
2017-07-27T04:48:29.603Z,19.15
2017-07-27T04:50:57.292Z,20.95
2017-07-27T04:53:24.923Z,20.45
2017-07-27T04:55:53.320Z,23.87
2017-07-27T04:58:20.992Z,19.27
2017-07-27T05:00:48.637Z,19.42
2017-07-27T05:03:16.300Z,16.92
2017-07-27T05:05:43.983Z,18.60
2017-07-27T05:08:12.402Z,23.45
2017-07-27T05:10:40.041Z,18.77
2017-07-27T05:13:07.720Z,24.27
2017-07-27T05:15:35.363Z,19.05
2017-07-27T05:18:03.003Z,21.90
2017-07-27T05:20:30.685Z,22.40
2017-07-27T05:22:59.096Z,23.08
2017-07-27T05:25:26.747Z,21.27
2017-07-27T05:27:54.420Z,19.23
2017-07-27T05:30:22.074Z,24.27
2017-07-27T05:32:49.702Z,25.33
2017-07-27T05:35:17.377Z,25.58
2017-07-27T05:37:45.797Z,24.23
2017-07-27T05:40:13.441Z,24.33
2017-07-27T05:42:41.116Z,23.73
2017-07-27T05:45:08.769Z,21.77
2017-07-27T05:47:37.182Z,17.40
2017-07-27T05:50:04.867Z,16.35
2017-07-27T05:52:32.509Z,16.92
2017-07-27T05:55:00.147Z,15.30
2017-07-27T05:57:27.833Z,16.30
2017-07-27T05:59:56.250Z,15.98
2017-07-27T06:02:23.905Z,16.40
2017-07-27T06:04:51.572Z,17.10
2017-07-27T06:07:19.232Z,14.20
2017-07-27T06:09:47.637Z,15.40
2017-07-27T06:12:15.307Z,17.02
2017-07-27T06:14:42.953Z,17.02
2017-07-27T06:17:10.597Z,14.38
2017-07-27T06:19:38.282Z,16.05
2017-07-27T06:22:05.933Z,15.30
2017-07-27T06:24:34.339Z,17.73
2017-07-27T06:27:02.015Z,15.82
2017-07-27T06:29:29.668Z,20.27
2017-07-27T06:31:57.325Z,14.82
2017-07-27T06:34:24.991Z,14.50
2017-07-27T06:36:53.389Z,15.98
2017-07-27T06:39:21.039Z,15.60
2017-07-27T06:41:48.712Z,18.92
2017-07-27T06:44:16.355Z,11.18
2017-07-27T06:46:43.991Z,15.23
2017-07-27T06:49:11.643Z,17.40
2017-07-27T06:51:39.261Z,15.60
2017-07-27T06:54:07.682Z,13.07
2017-07-27T06:56:35.328Z,10.77
2017-07-27T06:59:02.954Z,10.20
2017-07-27T07:01:30.557Z,9.00
2017-07-27T07:03:58.977Z,10.50
2017-07-27T07:06:26.586Z,9.97
2017-07-27T07:08:54.960Z,9.03
2017-07-27T07:11:22.606Z,10.13
2017-07-27T07:13:50.223Z,11.93
2017-07-27T07:16:17.834Z,8.07
2017-07-27T07:18:45.472Z,8.17
2017-07-27T07:21:13.074Z,8.97
2017-07-27T07:23:41.461Z,8.33
2017-07-27T07:26:09.092Z,8.17
2017-07-27T07:28:36.709Z,8.90
2017-07-27T07:31:04.311Z,8.93
2017-07-27T07:33:31.939Z,9.37
2017-07-27T07:35:59.565Z,7.83
2017-07-27T07:38:27.944Z,10.27
2017-07-27T07:40:55.602Z,8.10
2017-07-27T07:43:23.212Z,8.23
2017-07-27T07:45:51.580Z,9.33
2017-07-27T07:48:19.997Z,10.20
2017-07-27T07:50:47.604Z,8.70
2017-07-27T07:53:15.225Z,7.43
2017-07-27T07:55:42.876Z,7.67
2017-07-27T07:58:10.487Z,9.00
2017-07-27T08:00:38.103Z,8.43
2017-07-27T08:03:05.749Z,7.93
2017-07-27T08:05:33.370Z,8.13
2017-07-27T08:08:01.757Z,8.83
2017-07-27T08:10:29.398Z,7.60
2017-07-27T08:12:57.018Z,7.30
2017-07-27T08:15:25.396Z,8.07
2017-07-27T08:17:53.043Z,7.50
2017-07-27T08:20:21.410Z,7.60
2017-07-27T08:22:49.022Z,8.20
2017-07-27T08:25:16.669Z,8.40
2017-07-27T08:27:44.292Z,7.20
2017-07-27T08:30:11.909Z,8.33
2017-07-27T08:32:39.569Z,9.77
2017-07-27T08:35:07.180Z,7.83
2017-07-27T08:37:35.577Z,6.33
2017-07-27T08:40:03.209Z,7.67
2017-07-27T08:42:30.820Z,8.30
2017-07-27T08:44:58.433Z,7.37
2017-07-27T08:47:26.081Z,6.17
2017-07-27T08:49:53.685Z,6.53
2017-07-27T08:52:21.298Z,9.40
2017-07-27T08:54:48.954Z,7.90
2017-07-27T08:57:17.332Z,7.80
2017-07-27T08:59:45.709Z,6.60
2017-07-27T09:02:13.340Z,7.07
2017-07-27T09:04:41.717Z,6.50
2017-07-27T09:07:09.329Z,6.43
2017-07-27T09:09:37.741Z,5.83
2017-07-27T09:12:05.363Z,5.43
2017-07-27T09:14:32.989Z,7.03
2017-07-27T09:17:01.388Z,7.13
2017-07-27T09:19:29.002Z,6.40
2017-07-27T09:21:56.604Z,6.77
2017-07-27T09:24:24.244Z,6.77
2017-07-27T09:26:51.853Z,7.90
2017-07-27T09:29:19.473Z,5.90
2017-07-27T09:31:47.111Z,4.57
2017-07-27T09:34:14.715Z,4.83
2017-07-27T09:36:42.316Z,5.83
2017-07-27T09:39:09.955Z,5.63
2017-07-27T09:41:37.564Z,5.73
2017-07-27T09:44:05.160Z,7.10
2017-07-27T09:46:33.568Z,5.40
2017-07-27T09:49:01.184Z,6.23
2017-07-27T09:51:29.557Z,6.70
2017-07-27T09:53:57.184Z,6.27
2017-07-27T09:56:25.548Z,7.90
2017-07-27T09:58:53.287Z,7.37
2017-07-27T10:01:21.736Z,7.30
2017-07-27T10:03:49.409Z,6.90
2017-07-27T10:06:17.792Z,6.80
2017-07-27T10:08:45.431Z,7.27
2017-07-27T10:11:13.029Z,6.27
2017-07-27T10:13:40.645Z,8.13
2017-07-27T10:16:08.291Z,6.13
2017-07-27T10:18:35.912Z,7.90
2017-07-27T10:21:03.520Z,8.50
2017-07-27T10:23:31.169Z,7.60
2017-07-27T10:25:58.782Z,6.70
2017-07-27T10:28:26.447Z,6.40
2017-07-27T10:30:54.089Z,5.50
2017-07-27T10:33:21.717Z,6.80
2017-07-27T10:35:49.322Z,7.03
2017-07-27T10:38:17.047Z,7.33
2017-07-27T10:40:44.671Z,7.00
2017-07-27T10:43:12.277Z,6.27
2017-07-27T10:45:40.679Z,6.40
2017-07-27T10:48:08.275Z,6.33
2017-07-27T10:50:35.884Z,6.20
2017-07-27T10:53:03.849Z,6.27
2017-07-27T10:55:31.473Z,6.20
2017-07-27T10:57:59.085Z,7.20
2017-07-27T11:00:26.748Z,6.53
2017-07-27T11:02:54.369Z,6.37
2017-07-27T11:05:21.985Z,6.13
2017-07-27T11:07:49.625Z,6.70
2017-07-27T11:10:17.231Z,6.90
2017-07-27T11:12:44.837Z,6.60
2017-07-27T11:15:13.245Z,6.40
2017-07-27T11:17:40.862Z,7.90
2017-07-27T11:20:09.254Z,6.77
2017-07-27T11:22:36.907Z,6.33
2017-07-27T11:25:04.523Z,6.93
2017-07-27T11:27:32.144Z,7.90
2017-07-27T11:29:59.801Z,8.80
2017-07-27T11:32:28.189Z,8.43
2017-07-27T11:34:55.804Z,7.70
2017-07-27T11:37:23.439Z,7.43
2017-07-27T11:39:51.061Z,8.60
2017-07-27T11:42:18.678Z,8.27
2017-07-27T11:44:46.318Z,8.20
2017-07-27T11:47:13.935Z,8.30
2017-07-27T11:49:42.316Z,8.10
2017-07-27T11:52:09.970Z,9.67
2017-07-27T11:54:37.601Z,9.73
2017-07-27T11:57:05.236Z,8.50
2017-07-27T11:59:32.901Z,12.17
2017-07-27T12:02:00.513Z,9.23
2017-07-27T12:04:28.127Z,11.33
2017-07-27T12:06:55.773Z,13.40
2017-07-27T12:09:23.397Z,13.67
2017-07-27T12:11:51.055Z,13.83
2017-07-27T12:14:18.706Z,12.17
2017-07-27T12:16:46.347Z,12.90
2017-07-27T12:19:13.999Z,11.30
2017-07-27T12:21:41.618Z,13.57
2017-07-27T12:24:10.038Z,15.10
2017-07-27T12:26:37.657Z,12.20
2017-07-27T12:29:05.290Z,12.53
2017-07-27T12:31:32.937Z,13.47
2017-07-27T12:34:00.549Z,13.57
2017-07-27T12:36:28.211Z,14.10
2017-07-27T12:38:55.853Z,15.20
2017-07-27T12:41:24.248Z,15.70
2017-07-27T12:43:51.900Z,13.63
2017-07-27T12:46:19.533Z,15.50
2017-07-27T12:48:47.194Z,14.70
2017-07-27T12:51:14.804Z,14.67
2017-07-27T12:53:42.523Z,15.13
2017-07-27T12:56:10.207Z,14.00
2017-07-27T12:58:37.850Z,13.27
2017-07-27T13:01:06.254Z,12.97
2017-07-27T13:03:33.873Z,14.30
2017-07-27T13:06:01.492Z,15.47
2017-07-27T13:08:29.907Z,16.97
2017-07-27T13:10:57.518Z,15.60
2017-07-27T13:13:25.180Z,16.17
2017-07-27T13:15:52.849Z,16.03
2017-07-27T13:18:20.476Z,12.40
2017-07-27T13:20:48.139Z,12.40
2017-07-27T13:23:15.780Z,10.27
2017-07-27T13:25:43.424Z,11.53
2017-07-27T13:28:11.039Z,9.50
2017-07-27T13:30:38.649Z,9.73
2017-07-27T13:33:06.290Z,8.90
2017-07-27T13:35:33.898Z,10.10
2017-07-27T13:38:01.533Z,8.93
2017-07-27T13:40:29.149Z,9.47
2017-07-27T13:42:56.781Z,7.57
2017-07-27T13:45:24.416Z,10.23
2017-07-27T13:47:52.031Z,9.63
2017-07-27T13:50:19.684Z,9.37
2017-07-27T13:52:47.305Z,8.57
2017-07-27T13:55:15.689Z,7.93
2017-07-27T13:57:43.318Z,9.40
2017-07-27T14:00:11.688Z,9.83
2017-07-27T14:02:39.339Z,8.47
2017-07-27T14:05:06.958Z,9.90
2017-07-27T14:07:35.339Z,9.37
2017-07-27T14:10:03.779Z,10.87
2017-07-27T14:12:31.407Z,9.37
2017-07-27T14:14:59.066Z,10.97
2017-07-27T14:17:26.676Z,10.50
2017-07-27T14:19:54.286Z,11.33
2017-07-27T14:22:22.708Z,12.57
2017-07-27T14:24:50.328Z,11.00
2017-07-27T14:27:17.976Z,11.33
2017-07-27T14:29:45.613Z,10.47
2017-07-27T14:32:13.230Z,11.30
2017-07-27T14:34:40.893Z,11.97
2017-07-27T14:37:08.518Z,9.33
2017-07-27T14:39:36.924Z,11.93
2017-07-27T14:42:04.533Z,9.43
2017-07-27T14:44:32.182Z,9.80
2017-07-27T14:47:00.593Z,11.17
2017-07-27T14:49:28.205Z,8.73
2017-07-27T14:51:55.839Z,9.90
2017-07-27T14:54:24.204Z,8.73
2017-07-27T14:56:52.575Z,8.93
2017-07-27T14:59:20.203Z,9.30
2017-07-27T15:01:48.575Z,9.20
2017-07-27T15:04:17.035Z,7.13
2017-07-27T15:06:44.681Z,7.50
2017-07-27T15:09:13.052Z,7.47
2017-07-27T15:11:40.693Z,9.87
2017-07-27T15:14:08.316Z,7.97
2017-07-27T15:16:35.959Z,8.20
2017-07-27T15:19:03.595Z,7.50
2017-07-27T15:21:31.223Z,7.43
2017-07-27T15:23:58.892Z,7.70
2017-07-27T15:26:26.521Z,7.57
2017-07-27T15:28:54.157Z,7.90
2017-07-27T15:31:21.765Z,7.00
2017-07-27T15:33:49.378Z,8.00
2017-07-27T15:36:17.011Z,10.23
2017-07-27T15:38:44.628Z,7.63
2017-07-27T15:41:12.273Z,8.20
2017-07-27T15:43:39.880Z,7.73
2017-07-27T15:46:07.486Z,9.10
2017-07-27T15:48:35.129Z,7.70
2017-07-27T15:51:02.755Z,7.97
2017-07-27T15:53:30.411Z,6.60
2017-07-27T15:55:58.016Z,6.70
2017-07-27T15:58:26.398Z,7.73
2017-07-27T16:00:54.031Z,8.80
2017-07-27T16:03:22.422Z,9.13
2017-07-27T16:05:50.702Z,9.30
2017-07-27T16:08:18.307Z,9.13
2017-07-27T16:10:46.696Z,7.60
2017-07-27T16:13:14.327Z,8.20
2017-07-27T16:15:41.946Z,7.70
2017-07-27T16:18:10.377Z,9.17
2017-07-27T16:20:37.983Z,7.30
2017-07-27T16:23:05.604Z,7.10
2017-07-27T16:25:33.245Z,8.17
2017-07-27T16:28:00.877Z,9.83
2017-07-27T16:30:28.539Z,8.17
2017-07-27T16:32:56.154Z,10.33
2017-07-27T16:35:23.819Z,8.40
2017-07-27T16:37:51.481Z,7.50
2017-07-27T16:40:19.084Z,8.47
2017-07-27T16:42:46.760Z,7.80
2017-07-27T16:45:14.387Z,7.50
2017-07-27T16:47:42.004Z,9.60
2017-07-27T16:50:09.645Z,6.90
2017-07-27T16:52:37.251Z,6.50
2017-07-27T16:55:04.969Z,8.20
2017-07-27T16:57:32.579Z,7.53
2017-07-27T17:00:00.200Z,8.80
2017-07-27T17:02:27.853Z,7.50
2017-07-27T17:04:55.465Z,7.17
2017-07-27T17:07:23.104Z,8.33
2017-07-27T17:09:51.049Z,7.87
2017-07-27T17:12:18.734Z,8.95
2017-07-27T17:14:46.402Z,10.00
2017-07-27T17:17:14.044Z,9.63
2017-07-27T17:19:41.716Z,9.63
2017-07-27T17:22:09.396Z,12.30
2017-07-27T17:24:37.075Z,7.47
2017-07-27T17:27:06.674Z,6.43
2017-07-27T17:29:34.468Z,8.70
2017-07-27T17:32:02.190Z,7.50
2017-07-27T17:34:29.824Z,6.15
2017-07-27T17:36:57.461Z,7.90
2017-07-27T17:39:25.123Z,7.75
2017-07-27T17:41:52.747Z,8.18
2017-07-27T17:44:20.970Z,8.23
2017-07-27T17:46:48.633Z,9.02
2017-07-27T17:49:17.005Z,7.03
2017-07-27T17:51:45.513Z,7.93
2017-07-27T17:54:13.178Z,8.82
2017-07-27T17:56:40.856Z,8.80
2017-07-27T17:59:08.499Z,7.37
2017-07-27T18:01:36.131Z,8.93
2017-07-27T18:04:03.784Z,7.78
2017-07-27T18:06:31.464Z,7.30
2017-07-27T18:09:00.046Z,8.00
2017-07-27T18:11:27.762Z,7.40
2017-07-27T18:13:55.395Z,8.77
2017-07-27T18:16:23.100Z,7.18
2017-07-27T18:18:50.727Z,7.65
2017-07-27T18:21:18.397Z,7.40
2017-07-27T18:23:46.023Z,7.00
2017-07-27T18:26:14.408Z,7.40
2017-07-27T18:28:42.096Z,6.35
2017-07-27T18:31:09.740Z,8.07
2017-07-27T18:33:37.417Z,6.82
2017-07-27T18:36:05.075Z,7.60
2017-07-27T18:38:32.725Z,7.35
2017-07-27T18:41:00.384Z,6.25
2017-07-27T18:43:28.032Z,7.20
2017-07-27T18:45:55.720Z,6.95
2017-07-27T18:48:23.364Z,7.18
2017-07-27T18:50:51.033Z,6.43
2017-07-27T18:53:19.456Z,6.62
2017-07-27T18:55:47.184Z,7.82
2017-07-27T18:58:15.537Z,6.68
2017-07-27T19:00:43.679Z,8.00
2017-07-27T19:03:12.348Z,7.18
2017-07-27T19:05:40.220Z,9.05
2017-07-27T19:08:08.758Z,8.45
2017-07-27T19:10:37.763Z,7.55
2017-07-27T19:13:05.403Z,7.32
2017-07-27T19:15:34.253Z,6.90
2017-07-27T19:18:01.981Z,8.43
2017-07-27T19:20:29.669Z,9.23
2017-07-27T19:22:57.380Z,7.85
2017-07-27T19:25:25.029Z,8.45
2017-07-27T19:27:52.658Z,8.48
2017-07-27T19:30:20.323Z,7.15
2017-07-27T19:32:47.969Z,8.60
2017-07-27T19:35:15.756Z,8.23
2017-07-27T19:37:44.268Z,7.45
2017-07-27T19:40:11.925Z,6.85
2017-07-27T19:42:39.593Z,7.87
2017-07-27T19:45:07.232Z,8.98
2017-07-27T19:47:34.893Z,9.70
2017-07-27T19:50:02.825Z,6.75
2017-07-27T19:52:30.509Z,5.60
2017-07-27T19:54:58.168Z,6.35
2017-07-27T19:57:25.807Z,5.97
2017-07-27T19:59:53.502Z,8.10
2017-07-27T20:02:21.147Z,6.37
2017-07-27T20:04:48.767Z,7.80
2017-07-27T20:07:16.415Z,6.90
2017-07-27T20:09:44.043Z,6.05
2017-07-27T20:12:11.728Z,7.00
2017-07-27T20:14:39.347Z,6.60
2017-07-27T20:17:06.981Z,7.05
2017-07-27T20:19:34.648Z,9.32
2017-07-27T20:22:02.279Z,10.23
2017-07-27T20:24:30.475Z,12.70
2017-07-27T20:26:58.377Z,10.00
2017-07-27T20:29:26.820Z,9.90
2017-07-27T20:31:54.477Z,11.40
2017-07-27T20:34:24.065Z,15.32
2017-07-27T20:36:51.723Z,12.93
2017-07-27T20:39:20.112Z,8.80
2017-07-27T20:41:47.740Z,8.10
2017-07-27T20:44:17.110Z,7.82
2017-07-27T20:46:45.512Z,6.72
2017-07-27T20:49:13.171Z,8.27
2017-07-27T20:51:40.791Z,7.40
2017-07-27T20:54:09.014Z,8.35
2017-07-27T20:56:36.884Z,9.20
2017-07-27T20:59:06.468Z,7.93
2017-07-27T21:01:35.465Z,9.32
2017-07-27T21:04:03.910Z,15.55
2017-07-27T21:06:31.541Z,10.25
2017-07-27T21:08:59.514Z,10.85
2017-07-27T21:11:28.695Z,16.50
2017-07-27T21:13:58.056Z,14.38
2017-07-27T21:16:27.836Z,13.98
2017-07-27T21:18:58.867Z,12.88
2017-07-27T21:21:32.677Z,10.82
2017-07-27T21:24:03.400Z,9.02
2017-07-27T21:26:31.077Z,8.18
2017-07-27T21:28:59.481Z,9.55
2017-07-27T21:31:27.112Z,9.45
2017-07-27T21:33:57.027Z,9.27
2017-07-27T21:36:27.295Z,8.48
2017-07-27T21:38:55.723Z,10.20
2017-07-27T21:41:23.371Z,8.35
2017-07-27T21:43:51.005Z,11.70
2017-07-27T21:46:20.188Z,10.88
2017-07-27T21:48:50.953Z,14.15
2017-07-27T21:51:18.633Z,11.35
2017-07-27T21:53:46.256Z,9.68
2017-07-27T21:56:18.633Z,8.13
2017-07-27T21:58:47.733Z,8.15
2017-07-27T22:01:15.373Z,9.02
2017-07-27T22:03:43.041Z,8.82
2017-07-27T22:06:10.697Z,9.18
2017-07-27T22:08:38.337Z,8.82
2017-07-27T22:11:05.993Z,7.70
2017-07-27T22:13:33.686Z,9.60
2017-07-27T22:16:01.380Z,9.63
2017-07-27T22:18:28.998Z,9.50
2017-07-27T22:20:56.633Z,9.70
2017-07-27T22:23:24.300Z,10.80
2017-07-27T22:25:54.171Z,9.20
2017-07-27T22:30:54.717Z,11.15
2017-07-27T22:33:22.397Z,8.85
2017-07-27T22:35:50.783Z,9.55
2017-07-27T22:38:18.412Z,10.13
2017-07-27T22:40:46.841Z,12.07
2017-07-27T22:43:14.472Z,13.80
2017-07-27T22:45:42.149Z,12.35
2017-07-27T22:48:09.790Z,12.45
2017-07-27T22:50:37.424Z,13.95
2017-07-27T22:53:05.100Z,11.85
2017-07-27T22:55:32.732Z,16.35
2017-07-27T22:58:00.497Z,13.25
2017-07-27T23:00:28.136Z,11.00
2017-07-27T23:02:55.780Z,10.40
2017-07-27T23:05:23.454Z,14.52
2017-07-27T23:07:51.905Z,14.50
2017-07-27T23:10:19.582Z,13.40
2017-07-27T23:12:47.223Z,11.75
2017-07-27T23:15:14.852Z,11.52
2017-07-27T23:17:43.272Z,9.00
2017-07-27T23:20:10.896Z,9.00
2017-07-27T23:22:38.602Z,9.57
2017-07-27T23:25:06.993Z,8.80
2017-07-27T23:27:34.625Z,9.20
2017-07-27T23:30:03.061Z,11.88
2017-07-27T23:32:30.684Z,8.85
2017-07-27T23:34:58.345Z,7.70
2017-07-27T23:37:26.317Z,7.07
2017-07-27T23:39:53.952Z,7.55
2017-07-27T23:42:21.614Z,7.40
2017-07-27T23:44:49.235Z,7.70
2017-07-27T23:47:16.932Z,8.25
2017-07-27T23:49:45.318Z,8.65
2017-07-27T23:52:12.953Z,9.15
2017-07-27T23:54:40.612Z,9.18
2017-07-27T23:57:08.241Z,8.52
2017-07-27T23:59:35.908Z,10.45
